Time;durP1;ratioP1;P1;durP2;ratioP2;P2;SDS_P1;SDS_P2;PMS_P1;PMS_P2;Temp;Humidity;BMP_temperature;BMP_pressure;BME280_temperature;BME280_humidity;BME280_pressure;Samples;Min_cycle;Max_cycle;Signal;HPM_P1;HPM_P2
2022/03/01 00:02:24;;;;;;;16.80;9.43;;;3.20;99.90;;;;;;5052262;28;20041;-75
2022/03/01 00:04:51;;;;;;;13.88;8.80;;;3.80;99.90;;;;;;5033331;28;20040;-75
2022/03/01 00:07:17;;;;;;;16.80;10.32;;;3.50;99.90;;;;;;5034241;28;20099;-75
2022/03/01 00:09:42;;;;;;;16.05;10.75;;;3.30;99.90;;;;;;5033711;28;20523;-75
2022/03/01 00:12:09;;;;;;;16.70;9.70;;;;;;;;;;5051473;28;20124;-75
2022/03/01 00:14:35;;;;;;;15.82;9.88;;;;;;;;;;5033363;28;20040;-76
2022/03/01 00:17:01;;;;;;;15.23;9.38;;;;;;;;;;5051519;28;20041;-76
2022/03/01 00:19:29;;;;;;;17.77;10.80;;;;;;;;;;5033485;28;20509;-76
2022/03/01 00:21:55;;;;;;;14.15;9.02;;;;;;;;;;5033372;28;20243;-74
2022/03/01 00:24:21;;;;;;;14.57;9.38;;;;;;;;;;5037338;28;20041;-75
2022/03/01 00:26:47;;;;;;;16.13;9.25;;;;;;;;;;5036341;28;20563;-75
2022/03/01 00:29:13;;;;;;;17.27;8.98;;;;;;;;;;5037715;28;20045;-74
2022/03/01 00:31:39;;;;;;;15.60;9.80;;;;;;;;;;5037647;28;20053;-75
2022/03/01 00:34:05;;;;;;;14.43;9.35;;;;;;;;;;5036859;28;20492;-77
2022/03/01 00:36:31;;;;;;;14.65;8.85;;;;;;;;;;5037036;28;20064;-76
2022/03/01 00:38:57;;;;;;;14.07;9.20;;;;;;;;;;5020932;28;20067;-76
2022/03/01 00:41:23;;;;;;;15.20;9.25;;;;;;;;;;5021779;28;20041;-76
2022/03/01 00:43:50;;;;;;;15.98;9.55;;;;;;;;;;5036873;28;20044;-76
2022/03/01 00:46:17;;;;;;;16.65;9.27;;;;;;;;;;5055202;28;20492;-76
2022/03/01 00:48:43;;;;;;;15.15;9.18;;;;;;;;;;5036390;28;20045;-75
2022/03/01 00:51:09;;;;;;;14.68;9.15;;;;;;;;;;5037331;28;20044;-75
2022/03/01 00:53:35;;;;;;;19.98;11.55;;;;;;;;;;5036553;28;20052;-75
2022/03/01 00:56:04;;;;;;;12.60;9.25;;;;;;;;;;5036991;28;20040;-75
2022/03/01 00:58:31;;;;;;;18.65;10.23;;;;;;;;;;5037324;28;20045;-76
2022/03/01 01:00:57;;;;;;;17.13;9.90;;;;;;;;;;5036853;28;20098;-76
2022/03/01 01:03:23;;;;;;;17.48;9.93;;;;;;;;;;5020677;28;20128;-76
2022/03/01 01:05:49;;;;;;;17.98;11.50;;;;;;;;;;5036911;28;20124;-76
2022/03/01 01:08:15;;;;;;;17.80;10.27;;;;;;;;;;5036856;28;20045;-77
2022/03/01 01:10:41;;;;;;;16.33;9.20;;;;;;;;;;5036279;28;20454;-76
2022/03/01 01:13:07;;;;;;;16.17;9.63;;;;;;;;;;5037553;28;20073;-76
2022/03/01 01:15:33;;;;;;;15.60;10.57;;;;;;;;;;5036494;28;20041;-76
2022/03/01 01:17:59;;;;;;;17.23;10.35;;;;;;;;;;5037104;28;20041;-76
2022/03/01 01:20:25;;;;;;;17.02;10.35;;;;;;;;;;5020204;28;20444;-76
2022/03/01 01:22:52;;;;;;;17.42;10.48;;;;;;;;;;5035963;28;20071;-76
2022/03/01 01:25:23;;;;;;;17.52;9.65;;;;;;;;;;5037292;28;20049;-76
2022/03/01 01:27:51;;;;;;;15.05;10.10;;;;;;;;;;5036142;28;20040;-77
2022/03/01 01:30:21;;;;;;;18.08;9.73;;;;;;;;;;5036428;28;20041;-77
2022/03/01 01:32:48;;;;;;;17.98;10.65;;;;;;;;;;5036195;28;20049;-77
2022/03/01 01:35:15;;;;;;;17.83;10.88;;;;;;;;;;5035013;28;20045;-77
2022/03/01 01:37:41;;;;;;;19.90;10.82;;;;;;;;;;5035952;28;20040;-77
2022/03/01 01:40:09;;;;;;;17.17;11.27;;;;;;;;;;5037364;28;20109;-75
2022/03/01 01:42:35;;;;;;;19.05;11.40;;;;;;;;;;5025429;28;20056;-75
2022/03/01 01:45:01;;;;;;;17.08;9.02;;;;;;;;;;5016890;28;20049;-75
2022/03/01 01:47:27;;;;;;;19.08;10.85;;;;;;;;;;5016692;28;20049;-75
2022/03/01 01:49:53;;;;;;;20.05;11.38;;;;;;;;;;5049590;28;20128;-77
2022/03/01 01:52:19;;;;;;;16.77;10.82;;;;;;;;;;5016870;28;20124;-77
2022/03/01 01:54:45;;;;;;;16.08;10.50;;;;;;;;;;5016111;28;20475;-77
2022/03/01 01:57:15;;;;;;;18.17;11.63;;;;;;;;;;5016242;28;20049;-78
2022/03/01 01:59:42;;;;;;;18.70;11.23;;;;;;;;;;5016253;28;20045;-77
2022/03/01 02:02:10;;;;;;;17.63;10.65;;;;;;;;;;5007247;28;20048;-76
2022/03/01 02:04:36;;;;;;;17.05;10.90;;;;;;;;;;5035879;28;20037;-76
2022/03/01 02:07:02;;;;;;;15.57;9.95;;;;;;;;;;5036668;28;20041;-76
2022/03/01 02:09:28;;;;;;;16.08;9.85;;;;;;;;;;5020947;28;20537;-75
2022/03/01 02:11:54;;;;;;;17.35;11.18;;;;;;;;;;5032559;28;20064;-75
2022/03/01 02:14:20;;;;;;;17.20;10.63;;;;;;;;;;5031537;28;20045;-75
2022/03/01 02:16:46;;;;;;;17.08;10.55;;;;;;;;;;5031882;28;20037;-75
2022/03/01 02:19:13;;;;;;;18.60;9.85;;;;;;;;;;5033386;28;20103;-75
2022/03/01 02:21:46;;;;;;;16.45;9.98;;;;;;;;;;5020389;28;20041;-75
2022/03/01 02:24:12;;;;;;;18.88;10.55;;;;;;;;;;5017770;28;20037;-75
2022/03/01 02:26:38;;;;;;;14.73;9.85;;;;;;;;;;5035086;28;20040;-75
2022/03/01 02:29:04;;;;;;;17.02;9.05;;;;;;;;;;5035753;28;20110;-75
2022/03/01 02:31:30;;;;;;;15.63;9.80;;;;;;;;;;5035413;28;20059;-75
2022/03/01 02:33:57;;;;;;;16.80;10.30;;;;;;;;;;5035870;28;20456;-75
2022/03/01 02:36:23;;;;;;;19.58;11.30;;;;;;;;;;5035200;28;20077;-75
2022/03/01 02:38:49;;;;;;;16.35;9.75;;;;;;;;;;5014382;28;20077;-75
2022/03/01 02:41:15;;;;;;;15.43;9.38;;;;;;;;;;5015557;28;20045;-75
2022/03/01 02:43:41;;;;;;;17.83;11.13;;;;;;;;;;5015399;28;20052;-75
2022/03/01 02:46:08;;;;;;;19.08;10.05;;;;;;;;;;5015311;28;20045;-76
2022/03/01 02:48:34;;;;;;;17.15;9.98;;;;;;;;;;5015282;28;20148;-75
2022/03/01 02:51:00;;;;;;;19.48;10.15;;;;;;;;;;5015362;28;20559;-75
2022/03/01 02:53:26;;;;;;;17.95;10.70;;;;;;;;;;5015061;28;20091;-75
2022/03/01 02:55:52;;;;;;;16.55;10.48;;;;;;;;;;5014822;28;20045;-75
2022/03/01 02:58:18;;;;;;;19.48;10.15;;;;;;;;;;5015601;28;20045;-75
2022/03/01 03:00:48;;;;;;;17.65;11.38;;;;;;;;;;5014596;28;20057;-75
2022/03/01 03:03:14;;;;;;;18.58;10.32;;;;;;;;;;5015681;28;20045;-75
2022/03/01 03:05:40;;;;;;;18.42;10.63;;;;;;;;;;5041484;28;20500;-75
2022/03/01 03:08:07;;;;;;;17.88;10.98;;;;;;;;;;5034507;28;20113;-75
2022/03/01 03:10:34;;;;;;;18.08;10.88;;;;;;;;;;5018387;28;20036;-75
2022/03/01 03:13:00;;;;;;;16.40;10.13;;;;;;;;;;5035024;28;20056;-75
2022/03/01 03:15:27;;;;;;;17.17;9.18;;;;;;;;;;5034492;28;20072;-75
2022/03/01 03:17:53;;;;;;;17.75;10.13;;;;;;;;;;5027852;28;20043;-75
2022/03/01 03:20:20;;;;;;;19.42;10.98;;;;;;;;;;5015336;28;20451;-75
2022/03/01 03:22:46;;;;;;;17.92;10.82;;;;;;;;;;4997781;28;20505;-75
2022/03/01 03:25:12;;;;;;;15.35;10.70;;;;;;;;;;4998511;28;20049;-75
2022/03/01 03:27:38;;;;;;;16.20;9.43;;;;;;;;;;5018309;28;20037;-75
2022/03/01 03:30:05;;;;;;;16.50;10.85;;;;;;;;;;5034272;28;20037;-75
2022/03/01 03:32:31;;;;;;;18.85;10.88;;;;;;;;;;5017599;28;20053;-75
2022/03/01 03:34:57;;;;;;;19.80;9.98;;;;;;;;;;5034230;28;20448;-75
2022/03/01 03:37:23;;;;;;;17.65;10.68;;;;;;;;;;5034517;28;20080;-75
2022/03/01 03:39:49;;;;;;;17.60;10.63;;;;;;;;;;5034147;28;20489;-75
2022/03/01 03:42:15;;;;;;;21.00;10.38;;;;;;;;;;5017129;28;20051;-75
2022/03/01 03:44:42;;;;;;;15.90;10.25;;;;;;;;;;5034087;28;20049;-75
2022/03/01 03:47:09;;;;;;;19.80;11.45;;;;;;;;;;5052368;28;20041;-75
2022/03/01 03:49:35;;;;;;;19.45;10.70;;;;;;;;;;5033734;28;20094;-75
2022/03/01 03:52:02;;;;;;;17.70;10.93;;;;;;;;;;5033920;28;20048;-75
2022/03/01 03:54:28;;;;;;;16.77;10.15;;;;;;;;;;5018075;28;20045;-75
2022/03/01 03:56:54;;;;;;;18.15;10.43;;;;;;;;;;5019243;28;20052;-75
2022/03/01 03:59:20;;;;;;;17.13;11.18;;;;;;;;;;5014006;28;20045;-74
2022/03/01 04:01:47;;;;;;;18.05;10.40;;;;;;;;;;5014567;28;20041;-63
2022/03/01 04:04:13;;;;;;;18.73;10.65;;;;;;;;;;5013980;28;20049;-63
2022/03/01 04:06:39;;;;;;;16.45;10.80;;;;;;;;;;5013948;28;20540;-63
2022/03/01 04:09:05;;;;;;;15.38;10.00;;;;;;;;;;5014727;28;20079;-62
2022/03/01 04:11:32;;;;;;;16.40;9.75;;;;;;;;;;5026038;28;20087;-63
2022/03/01 04:13:58;;;;;;;18.95;11.55;;;;;;;;;;5033521;28;20041;-63
2022/03/01 04:16:24;;;;;;;15.48;10.35;;;;;;;;;;5034333;28;20095;-63
2022/03/01 04:18:50;;;;;;;20.75;12.32;;;;;;;;;;5032936;28;20045;-62
2022/03/01 04:21:16;;;;;;;18.75;11.40;;;;;;;;;;5033634;28;20049;-63
2022/03/01 04:23:43;;;;;;;16.35;10.35;;;;;;;;;;5029615;28;20208;-63
2022/03/01 04:26:09;;;;;;;16.58;10.43;;;;;;;;;;4997832;28;20077;-63
2022/03/01 04:28:35;;;;;;;18.02;10.73;;;;;;;;;;5013959;28;20402;-63
2022/03/01 04:31:01;;;;;;;16.50;10.77;;;;;;;;;;5014012;28;20123;-62
2022/03/01 04:33:27;;;;;;;16.83;11.90;;;;;;;;;;5032031;28;20461;-62
2022/03/01 04:35:54;;;;;;;17.58;10.77;;;;;;;;;;5031013;28;20037;-63
2022/03/01 04:38:20;;;;;;;16.10;9.82;;;;;;;;;;5030181;28;20406;-63
2022/03/01 04:40:47;;;;;;;17.42;10.82;;;;;;;;;;5029994;28;20042;-63
2022/03/01 04:43:13;;;;;;;16.63;10.18;;;;;;;;;;5014192;28;20042;-62
2022/03/01 04:45:39;;;;;;;17.83;10.02;;;;;;;;;;5029664;28;20056;-63
2022/03/01 04:48:05;;;;;;;18.10;10.75;;;;;;;;;;5030317;28;20042;-63
2022/03/01 04:50:35;;;;;;;16.70;11.70;;;;;;;;;;5013863;28;20046;-63
2022/03/01 04:53:01;;;;;;;17.52;11.02;;;;;;;;;;5029177;28;20069;-62
2022/03/01 04:55:27;;;;;;;16.95;10.38;;;;;;;;;;5030483;28;20122;-63
2022/03/01 04:57:53;;;;;;;15.73;9.73;;;;;;;;;;5030005;28;20052;-62
2022/03/01 05:00:19;;;;;;;21.00;11.27;;;;;;;;;;5029907;28;20091;-63
2022/03/01 05:02:47;;;;;;;17.27;11.05;;;;;;;;;;5030742;28;20479;-62
2022/03/01 05:05:13;;;;;;;18.13;11.55;;;;;;;;;;5030320;28;20045;-62
2022/03/01 05:07:40;;;;;;;19.10;10.93;;;;;;;;;;5029146;28;20042;-63
2022/03/01 05:10:07;;;;;;;18.85;10.85;;;;;;;;;;5032783;28;20045;-62
2022/03/01 05:12:33;;;;;;;17.05;11.27;;;;;;;;;;5017629;28;20414;-63
2022/03/01 05:14:59;;;;;;;17.40;10.75;;;;;;;;;;5033239;28;20593;-62
2022/03/01 05:17:25;;;;;;;18.90;11.65;;;;;;;;;;5033216;28;20091;-63
2022/03/01 05:19:51;;;;;;;19.25;10.05;;;;;;;;;;5032671;28;20081;-63
2022/03/01 05:22:17;;;;;;;22.95;12.18;;;;;;;;;;5033460;28;20386;-63
2022/03/01 05:24:43;;;;;;;20.35;11.50;;;;;;;;;;5016644;28;20048;-62
2022/03/01 05:27:09;;;;;;;21.13;12.32;;;;;;;;;;5033750;28;20046;-62
2022/03/01 05:29:35;;;;;;;16.85;10.75;;;;;;;;;;5032905;28;20059;-63
2022/03/01 05:32:01;;;;;;;17.73;10.90;;;;;;;;;;5018168;28;20045;-63
2022/03/01 05:34:28;;;;;;;18.10;11.27;;;;;;;;;;5054634;28;20071;-62
2022/03/01 05:36:54;;;;;;;19.38;12.75;;;;;;;;;;5037028;28;20071;-62
2022/03/01 05:39:20;;;;;;;20.65;11.52;;;;;;;;;;5037320;28;20540;-62
2022/03/01 05:41:46;;;;;;;17.58;11.70;;;;;;;;;;5036272;28;20098;-62
2022/03/01 05:44:12;;;;;;;18.73;10.82;;;;;;;;;;5019919;28;20124;-62
2022/03/01 05:46:38;;;;;;;17.75;10.55;;;;;;;;;;5037047;28;20119;-62
2022/03/01 05:49:09;;;;;;;16.77;10.57;;;;;;;;;;5019137;28;20540;-62
2022/03/01 05:51:35;;;;;;;17.95;10.70;;;;;;;;;;5020040;28;20044;-62
2022/03/01 05:54:01;;;;;;;17.92;11.60;;;;;;;;;;5036303;28;20037;-62
2022/03/01 05:56:27;;;;;;;17.50;10.35;;;;;;;;;;5035589;28;20044;-62
2022/03/01 05:58:53;;;;;;;19.00;11.45;;;;;;;;;;5036109;28;20044;-62
2022/03/01 06:01:19;;;;;;;18.33;11.75;;;;;;;;;;5035888;28;20123;-62
2022/03/01 06:03:45;;;;;;;18.88;11.10;;;;;;;;;;5035590;28;20041;-62
2022/03/01 06:06:11;;;;;;;15.18;10.25;;;;;;;;;;5035649;28;20501;-62
2022/03/01 06:08:37;;;;;;;23.55;11.27;;;;;;;;;;5054050;28;20041;-62
2022/03/01 06:11:03;;;;;;;22.17;11.60;;;;;;;;;;5035874;28;20033;-62
2022/03/01 06:13:29;;;;;;;17.67;11.35;;;;;;;;;;5035654;28;20551;-62
2022/03/01 06:15:56;;;;;;;18.50;10.93;;;;;;;;;;5035896;28;20041;-63
2022/03/01 06:18:21;;;;;;;19.75;11.30;;;;;;;;;;5035331;28;20552;-62
2022/03/01 06:20:47;;;;;;;17.20;11.18;;;;;;;;;;5017621;28;20127;-62
2022/03/01 06:23:13;;;;;;;16.60;11.15;;;;;;;;;;5034709;28;20066;-62
2022/03/01 06:25:40;;;;;;;19.27;10.80;;;;;;;;;;5019163;28;20076;-62
2022/03/01 06:28:06;;;;;;;18.70;12.07;;;;;;;;;;5019620;28;20402;-62
2022/03/01 06:30:32;;;;;;;20.23;12.65;;;;;;;;;;5035743;28;20041;-62
2022/03/01 06:32:58;;;;;;;19.85;11.18;;;;;;;;;;5035320;28;20049;-63
2022/03/01 06:35:24;;;;;;;19.55;10.48;;;;;;;;;;5009502;28;20086;-63
2022/03/01 06:37:50;;;;;;;16.05;10.55;;;;;;;;;;4999175;28;20045;-62
2022/03/01 06:40:16;;;;;;;18.65;11.43;;;;;;;;;;5034117;28;20437;-63
2022/03/01 06:42:43;;;;;;;17.48;10.70;;;;;;;;;;5015484;28;20172;-62
2022/03/01 06:45:09;;;;;;;16.08;10.30;;;;;;;;;;5027336;28;20048;-62
2022/03/01 06:47:35;;;;;;;20.05;12.30;;;;;;;;;;5010980;28;20128;-62
2022/03/01 06:50:01;;;;;;;16.75;10.40;;;;;;;;;;5034144;28;20041;-62
2022/03/01 06:52:29;;;;;;;19.42;11.73;;;;;;;;;;5032809;28;20406;-62
2022/03/01 06:54:55;;;;;;;17.55;10.68;;;;;;;;;;5015253;28;20045;-62
2022/03/01 06:57:21;;;;;;;19.98;11.30;;;;;;;;;;5015035;28;20421;-62
2022/03/01 06:59:47;;;;;;;18.25;11.30;;;;;;;;;;5014687;28;20064;-62
2022/03/01 07:02:13;;;;;;;17.20;11.10;;;;;;;;;;5015279;28;20041;-62
2022/03/01 07:04:39;;;;;;;17.15;11.27;;;;;;;;;;5000359;28;20037;-62
2022/03/01 07:07:05;;;;;;;19.75;11.30;;;;;;;;;;5015185;28;20064;-62
2022/03/01 07:09:31;;;;;;;18.15;10.63;;;;;;;;;;5014663;28;20046;-63
2022/03/01 07:11:57;;;;;;;16.15;10.65;;;;;;;;;;4999560;28;20041;-63
2022/03/01 07:14:29;;;;;;;19.05;11.10;;;;;;;;;;5014785;28;20037;-62
2022/03/01 07:16:55;;;;;;;18.60;10.93;;;;;;;;;;5014923;28;20048;-62
2022/03/01 07:19:21;;;;;;;19.40;11.15;;;;;;;;;;5015254;28;20038;-63
2022/03/01 07:21:47;;;;;;;18.23;11.90;;;;;;;;;;5014498;28;20486;-62
2022/03/01 07:24:13;;;;;;;16.90;10.43;;;;;;;;;;5014475;28;20037;-62
2022/03/01 07:26:39;;;;;;;17.58;10.45;;;;;;;;;;5015840;28;20067;-62
2022/03/01 07:29:05;;;;;;;17.13;10.02;;;;;;;;;;5015361;28;20478;-62
2022/03/01 07:31:31;;;;;;;19.40;11.88;;;;;;;;;;5017027;28;20053;-62
2022/03/01 07:33:57;;;;;;;18.15;11.50;;;;;;;;;;5029840;28;20045;-63
2022/03/01 07:36:23;;;;;;;17.92;11.38;;;4.00;99.90;;;;;;5032235;28;20037;-63
2022/03/01 07:38:49;;;;;;;20.52;10.45;;;4.60;99.90;;;;;;5030857;28;20114;-63
2022/03/01 07:41:15;;;;;;;19.38;11.45;;;4.00;99.90;;;;;;5030557;28;20132;-63
2022/03/01 07:43:40;;;;;;;21.08;12.82;;;3.90;99.90;;;;;;5030467;28;20064;-63
2022/03/01 07:46:11;;;;;;;18.05;11.65;;;3.90;99.90;;;;;;5031211;28;20043;-63
2022/03/01 07:48:38;;;;;;;19.23;11.60;;;4.10;99.90;;;;;;5030718;28;20038;-63
2022/03/01 07:51:03;;;;;;;15.18;10.25;;;4.10;99.90;;;;;;5030833;28;20041;-63
2022/03/01 07:53:29;;;;;;;18.85;10.90;;;4.00;99.90;;;;;;5014348;28;20033;-63
2022/03/01 07:55:55;;;;;;;19.73;12.25;;;4.10;99.90;;;;;;5014184;28;20667;-63
2022/03/01 07:58:20;;;;;;;17.55;11.05;;;4.10;99.90;;;;;;5030793;28;20052;-62
2022/03/01 08:00:46;;;;;;;19.13;11.13;;;4.20;99.90;;;;;;5036420;28;20254;-63
2022/03/01 08:03:12;;;;;;;21.10;12.15;;;5.30;99.90;;;;;;5010587;28;20130;-63
2022/03/01 08:05:37;;;;;;;15.55;10.00;;;4.20;99.90;;;;;;5029322;28;20140;-63
2022/03/01 08:08:04;;;;;;;15.68;10.13;;;4.20;99.90;;;;;;5039004;28;20053;-63
2022/03/01 08:10:30;;;;;;;21.20;11.98;;;4.40;99.90;;;;;;5010316;28;20037;-63
2022/03/01 08:12:56;;;;;;;30.05;12.60;;;4.30;99.90;;;;;;5028225;28;20136;-63
2022/03/01 08:15:26;;;;;;;17.73;10.48;;;4.40;99.90;;;;;;5028685;28;20045;-63
2022/03/01 08:17:53;;;;;;;16.30;10.75;;;4.40;99.90;;;;;;5027676;28;20494;-63
2022/03/01 08:20:19;;;;;;;19.58;11.10;;;4.40;99.90;;;;;;5027948;28;20481;-63
2022/03/01 08:22:45;;;;;;;18.67;11.32;;;4.50;99.90;;;;;;5027818;28;20049;-63
2022/03/01 08:25:12;;;;;;;18.45;11.23;;;;;;;;;;5027143;28;20045;-63
2022/03/01 08:27:38;;;;;;;16.55;11.00;;;;;;;;;;5028141;28;20041;-63
2022/03/01 08:30:04;;;;;;;22.35;12.15;;;;;;;;;;5026334;28;20053;-63
2022/03/01 08:32:30;;;;;;;15.63;9.95;;;;;;;;;;5029629;28;20114;-63
2022/03/01 08:34:56;;;;;;;16.85;10.95;;;;;;;;;;5021688;28;20080;-63
2022/03/01 08:37:22;;;;;;;18.05;10.90;;;;;;;;;;5029118;28;20049;-63
2022/03/01 08:39:48;;;;;;;17.02;10.00;;;;;;;;;;5014132;28;20049;-63
2022/03/01 08:42:14;;;;;;;18.40;10.52;;;;;;;;;;5030065;28;20048;-63
2022/03/01 08:44:40;;;;;;;23.48;12.15;;;5.20;99.90;;;;;;5050309;28;20469;-63
2022/03/01 08:47:06;;;;;;;17.15;10.93;;;;;;;;;;5035046;28;20037;-63
2022/03/01 08:49:32;;;;;;;16.58;10.90;;;;;;;;;;5034754;28;20041;-63
2022/03/01 08:51:58;;;;;;;17.42;11.23;;;;;;;;;;5033827;28;20037;-63
2022/03/01 08:54:24;;;;;;;17.30;10.07;;;;;;;;;;5038296;28;20075;-63
2022/03/01 08:56:50;;;;;;;18.00;10.68;;;;;;;;;;5034640;28;20105;-63
2022/03/01 08:59:17;;;;;;;18.98;11.98;;;;;;;;;;5034278;28;20497;-63
2022/03/01 09:01:43;;;;;;;16.95;10.52;;;;;;;;;;5032368;28;20131;-63
2022/03/01 09:04:10;;;;;;;16.15;10.35;;;;;;;;;;5035148;28;20076;-63
2022/03/01 09:06:36;;;;;;;16.23;9.95;;;;;;;;;;5035044;28;20045;-63
2022/03/01 09:09:02;;;;;;;19.15;10.93;;;;;;;;;;5018571;28;20064;-63
2022/03/01 09:11:28;;;;;;;16.83;11.60;;;;;;;;;;5034745;28;20045;-63
2022/03/01 09:13:54;;;;;;;17.42;10.77;;;;;;;;;;5034663;28;20412;-63
2022/03/01 09:16:20;;;;;;;20.48;12.30;;;;;;;;;;5034833;28;20041;-63
2022/03/01 09:18:45;;;;;;;19.55;10.50;;;5.60;99.90;;;;;;5032467;28;20053;-63
2022/03/01 09:21:11;;;;;;;19.63;11.55;;;5.80;99.90;;;;;;5034226;28;20063;-63
2022/03/01 09:23:37;;;;;;;19.67;10.65;;;;;;;;;;5034354;28;20049;-63
2022/03/01 09:26:03;;;;;;;17.30;10.20;;;;;;;;;;5034514;28;20041;-63
2022/03/01 09:28:29;;;;;;;18.55;12.05;;;;;;;;;;5033853;28;20041;-63
2022/03/01 09:30:55;;;;;;;18.95;11.23;;;;;;;;;;5038884;28;20049;-63
2022/03/01 09:33:23;;;;;;;19.02;11.60;;;;;;;;;;5049726;28;20406;-63
2022/03/01 09:35:49;;;;;;;18.05;11.50;;;;;;;;;;5051112;28;20048;-63
2022/03/01 09:38:15;;;;;;;17.85;11.35;;;;;;;;;;5017104;28;20040;-63
2022/03/01 09:40:41;;;;;;;19.00;12.10;;;;;;;;;;5032058;28;20068;-63
2022/03/01 09:43:08;;;;;;;18.20;11.50;;;;;;;;;;5033560;28;20048;-63
2022/03/01 09:45:34;;;;;;;17.50;11.65;;;;;;;;;;5032487;28;20091;-63
2022/03/01 09:48:00;;;;;;;19.55;11.77;;;;;;;;;;5032223;28;20048;-63
2022/03/01 09:50:30;;;;;;;17.05;11.40;;;;;;;;;;5051060;28;20041;-63
2022/03/01 09:53:01;;;;;;;17.08;11.20;;;6.10;99.90;;;;;;5031627;28;20094;-63
2022/03/01 09:55:30;;;;;;;19.10;11.68;;;;;;;;;;5014952;28;20055;-63
2022/03/01 09:57:58;;;;;;;17.40;11.57;;;;;;;;;;5019827;28;20062;-63
2022/03/01 10:00:25;;;;;;;18.10;12.30;;;;;;;;;;5025571;28;20170;-63
2022/03/01 10:02:54;;;;;;;20.25;11.80;;;;;;;;;;5034983;28;20557;-63
2022/03/01 10:05:30;;;;;;;20.65;12.43;;;;;;;;;;5035443;28;20041;-63
2022/03/01 10:08:05;;;;;;;19.85;12.90;;;;;;;;;;5035740;28;20076;-63
2022/03/01 10:38:28;;;;;;;21.42;14.27;;;;;;;;;;5029109;28;20577;-63
2022/03/01 10:40:59;;;;;;;22.02;13.55;;;;;;;;;;5015865;28;20045;-62
2022/03/01 10:43:26;;;;;;;23.05;14.38;;;;;;;;;;5031810;28;20040;-63
2022/03/01 10:45:52;;;;;;;21.45;14.70;;;;;;;;;;5025693;28;20037;-63
2022/03/01 10:48:29;;;;;;;19.65;12.93;;;;;;;;;;5030132;28;20516;-63
2022/03/01 10:51:02;;;;;;;22.75;13.25;;;;;;;;;;5032064;28;20037;-63
2022/03/01 10:53:33;;;;;;;21.02;12.52;;;;;;;;;;5032402;28;20040;-63
2022/03/01 10:56:03;;;;;;;22.67;13.73;;;;;;;;;;5029813;28;20102;-63
2022/03/01 10:58:30;;;;;;;18.67;12.73;;;;;;;;;;5031117;28;20057;-63
2022/03/01 11:00:56;;;;;;;20.33;13.23;;;;;;;;;;5030763;28;20397;-62
2022/03/01 11:03:23;;;;;;;21.35;13.23;;;;;;;;;;5030579;28;20095;-62
2022/03/01 11:05:50;;;;;;;21.30;13.32;;;;;;;;;;5030869;28;20145;-62
2022/03/01 11:08:16;;;;;;;25.55;15.02;;;;;;;;;;5031247;28;20052;-62
2022/03/01 11:10:42;;;;;;;21.83;13.93;;;;;;;;;;5031742;28;20044;-62
2022/03/01 11:13:09;;;;;;;24.05;14.23;;;;;;;;;;5031358;28;20130;-62
2022/03/01 11:15:47;;;;;;;21.23;13.13;;;;;;;;;;5015068;28;20132;-62
2022/03/01 11:18:27;;;;;;;24.98;13.77;;;;;;;;;;5032613;28;20041;-62
2022/03/01 11:20:54;;;;;;;20.23;14.13;;;;;;;;;;5030752;28;20041;-62
2022/03/01 11:23:22;;;;;;;20.40;14.07;;;;;;;;;;5030547;28;20045;-62
2022/03/01 11:25:48;;;;;;;23.23;15.27;;;;;;;;;;5030790;28;20501;-64
2022/03/01 11:28:16;;;;;;;20.30;14.48;;;;;;;;;;5035277;28;20070;-63
2022/03/01 11:30:51;;;;;;;24.05;15.43;;;;;;;;;;5019324;28;20037;-63
2022/03/01 11:33:25;;;;;;;20.55;14.07;;;;;;;;;;5027867;28;20041;-63
2022/03/01 11:35:53;;;;;;;22.80;14.65;;;;;;;;;;5031101;28;20076;-63
2022/03/01 11:38:19;;;;;;;24.35;15.43;;;;;;;;;;5048820;28;20045;-63
2022/03/01 11:40:47;;;;;;;29.65;15.43;;;;;;;;;;5029305;28;20069;-62
2022/03/01 11:43:14;;;;;;;21.27;14.50;;;;;;;;;;5031014;28;20379;-63
2022/03/01 11:45:44;;;;;;;24.05;16.40;;;;;;;;;;5038726;28;20052;-63
2022/03/01 11:48:20;;;;;;;22.08;14.57;;;;;;;;;;5030358;28;20040;-63
2022/03/01 11:51:03;;;;;;;24.55;16.45;;;;;;;;;;5014084;28;20080;-63
2022/03/01 11:53:34;;;;;;;27.05;16.67;;;;;;;;;;5034716;28;20049;-63
2022/03/01 11:56:02;;;;;;;24.95;15.00;;;;;;;;;;5028890;28;20048;-63
2022/03/01 11:58:28;;;;;;;21.23;16.05;;;;;;;;;;5031014;28;20120;-63
2022/03/01 12:00:58;;;;;;;23.23;15.00;;;;;;;;;;5011707;28;20050;-62
2022/03/01 12:03:26;;;;;;;22.20;14.85;;;;;;;;;;5025780;28;20048;-63
2022/03/01 12:05:52;;;;;;;22.83;15.68;;;;;;;;;;5034562;28;20040;-63
2022/03/01 12:08:19;;;;;;;101.10;71.22;;;;;;;;;;5020954;28;20041;-63
2022/03/01 12:10:56;;;;;;;56.22;34.47;;;;;;;;;;5026818;28;20048;-63
2022/03/01 12:13:44;;;;;;;31.80;18.10;;;;;;;;;;5026983;28;20497;-63
2022/03/01 12:16:12;;;;;;;26.52;16.33;;;;;;;;;;5031417;28;20497;-63
2022/03/01 12:18:39;;;;;;;30.30;19.35;;;;;;;;;;5045807;28;20083;-62
2022/03/01 12:21:08;;;;;;;26.13;17.40;;;6.40;99.90;;;;;;5031417;28;20037;-63
2022/03/01 12:23:35;;;;;;;24.20;16.90;;;8.20;99.90;;;;;;5031519;28;20080;-62
2022/03/01 12:26:03;;;;;;;22.50;15.90;;;6.30;99.90;;;;;;5031305;28;20076;-62
2022/03/01 12:28:50;;;;;;;24.95;16.10;;;6.20;99.90;;;;;;5031435;28;20045;-63
2022/03/01 12:31:20;;;;;;;25.50;16.38;;;6.50;99.90;;;;;;5010012;28;20055;-63
2022/03/01 12:33:59;;;;;;;26.65;17.33;;;6.30;99.90;;;;;;5012052;28;20300;-62
2022/03/01 12:36:28;;;;;;;22.95;15.32;;;6.30;99.90;;;;;;5021335;28;20041;-62
2022/03/01 12:38:59;;;;;;;23.52;16.10;;;6.80;99.90;;;;;;5032289;28;20045;-62
2022/03/01 12:41:25;;;;;;;25.25;16.42;;;7.20;99.90;;;;;;5050599;28;20053;-62
2022/03/01 12:43:59;;;;;;;31.10;16.80;;;6.70;99.90;;;;;;5050260;28;20512;-62
2022/03/01 12:46:27;;;;;;;23.67;16.00;;;7.20;99.90;;;;;;5033560;28;20041;-62
2022/03/01 12:48:54;;;;;;;22.98;15.48;;;6.90;99.90;;;;;;5049236;28;20045;-61
2022/03/01 12:51:21;;;;;;;26.55;17.10;;;6.90;99.90;;;;;;5032917;28;20084;-61
2022/03/01 12:54:10;;;;;;;24.23;15.88;;;6.90;99.90;;;;;;5032591;28;20041;-62
2022/03/01 12:56:37;;;;;;;24.70;16.08;;;6.70;99.90;;;;;;5033565;28;20037;-61
2022/03/01 12:59:13;;;;;;;24.70;16.40;;;6.70;99.90;;;;;;5033011;28;20061;-61
2022/03/01 13:01:45;;;;;;;24.67;15.15;;;6.90;99.90;;;;;;5051365;28;20056;-61
2022/03/01 13:04:11;;;;;;;24.40;14.77;;;6.90;99.90;;;;;;5032960;28;20076;-62
2022/03/01 13:06:38;;;;;;;22.88;15.63;;;6.90;99.90;;;;;;5032959;28;20056;-62
2022/03/01 13:09:05;;;;;;;23.98;16.85;;;7.00;99.90;;;;;;5016576;28;20098;-61
2022/03/01 13:11:31;;;;;;;24.77;16.55;;;7.00;99.90;;;;;;5033056;28;20073;-62
2022/03/01 13:14:04;;;;;;;26.98;16.75;;;6.90;99.90;;;;;;5016747;28;20048;-62
2022/03/01 13:16:36;;;;;;;27.80;18.40;;;6.90;99.90;;;;;;5050103;28;20489;-61
2022/03/01 13:19:25;;;;;;;25.75;17.98;;;6.90;99.90;;;;;;5049644;28;20052;-61
2022/03/01 13:22:01;;;;;;;23.27;16.05;;;6.90;99.90;;;;;;5032668;28;20044;-62
2022/03/01 13:24:29;;;;;;;27.02;16.40;;;6.90;99.90;;;;;;5032991;28;20614;-62
2022/03/01 13:26:57;;;;;;;28.45;17.13;;;6.90;99.90;;;;;;5032796;28;20401;-62
2022/03/01 13:29:29;;;;;;;25.13;17.17;;;6.80;99.90;;;;;;5032949;28;20049;-62
2022/03/01 13:32:01;;;;;;;27.42;17.45;;;6.90;99.90;;;;;;5035274;28;20045;-62
2022/03/01 13:34:26;;;;;;;25.23;17.25;;;6.90;99.90;;;;;;5036126;28;20045;-62
2022/03/01 13:36:52;;;;;;;24.83;17.23;;;;;;;;;;5035603;28;20048;-62
2022/03/01 13:39:20;;;;;;;26.40;16.15;;;;;;;;;;5035596;28;20499;-62
2022/03/01 13:41:46;;;;;;;28.02;17.00;;;;;;;;;;5034692;28;20063;-62
2022/03/01 13:44:17;;;;;;;26.02;17.60;;;;;;;;;;5036872;28;20048;-62
2022/03/01 13:47:14;;;;;;;23.65;16.10;;;;;;;;;;5053795;28;20119;-62
2022/03/01 13:49:44;;;;;;;22.95;16.35;;;;;;;;;;5020506;28;20057;-62
2022/03/01 13:52:20;;;;;;;29.90;17.85;;;;;;;;;;5053769;28;20045;-62
2022/03/01 13:55:04;;;;;;;25.80;18.40;;;;;;;;;;5036311;28;20055;-62
2022/03/01 13:57:31;;;;;;;26.98;16.98;;;;;;;;;;5035637;28;20122;-62
2022/03/01 14:00:00;;;;;;;25.92;17.10;;;;;;;;;;5035624;28;20504;-62
2022/03/01 14:02:26;;;;;;;26.52;17.52;;;;;;;;;;5035420;28;20040;-63
2022/03/01 14:05:03;;;;;;;27.58;19.38;;;;;;;;;;5054161;28;20049;-62
2022/03/01 14:07:29;;;;;;;25.90;17.88;;;;;;;;;;5054073;28;20040;-62
2022/03/01 14:09:55;;;;;;;30.60;18.35;;;;;;;;;;5054113;28;20127;-62
2022/03/01 14:12:39;;;;;;;29.80;19.02;;;;;;;;;;5036075;28;20095;-62
2022/03/01 14:15:06;;;;;;;25.50;17.95;;;;;;;;;;5035627;28;20504;-62
2022/03/01 14:17:32;;;;;;;29.52;18.65;;;;;;;;;;5035737;28;20041;-63
2022/03/01 14:19:59;;;;;;;23.00;16.63;;;;;;;;;;5035988;28;20124;-63
2022/03/01 14:22:25;;;;;;;29.60;17.52;;;;;;;;;;5035556;28;20040;-63
2022/03/01 14:24:52;;;;;;;25.20;17.27;;;;;;;;;;5053809;28;20084;-63
2022/03/01 14:27:18;;;;;;;23.65;16.70;;;;;;;;;;5036088;28;20498;-63
2022/03/01 14:29:45;;;;;;;25.27;16.17;;;;;;;;;;5034894;28;20128;-63